createdAt,value
2019-05-11T00:01:00.105Z,59.40
2019-05-11T00:03:28.876Z,59.60
2019-05-11T00:05:57.629Z,59.60
2019-05-11T00:08:26.480Z,59.60
2019-05-11T00:10:55.225Z,59.60
2019-05-11T00:13:24.055Z,59.80
2019-05-11T00:15:52.738Z,59.80
2019-05-11T00:18:21.492Z,60.20
2019-05-11T00:20:50.251Z,60.40
2019-05-11T00:23:19.062Z,60.10
2019-05-11T00:25:47.897Z,60.10
2019-05-11T00:28:16.731Z,60.50
2019-05-11T00:30:45.407Z,60.30
2019-05-11T00:33:14.158Z,60.50
2019-05-11T00:35:42.921Z,60.90
2019-05-11T00:38:11.676Z,61.00
2019-05-11T00:40:40.363Z,61.60
2019-05-11T00:43:09.134Z,61.50
2019-05-11T00:45:37.813Z,61.80
2019-05-11T00:48:06.660Z,61.80
2019-05-11T00:50:39.153Z,61.70
2019-05-11T00:53:05.911Z,62.10
2019-05-11T00:55:34.654Z,62.40
2019-05-11T00:58:03.477Z,62.40
2019-05-11T01:00:32.225Z,62.50
2019-05-11T01:03:00.955Z,62.80
2019-05-11T01:05:29.714Z,63.10
2019-05-11T01:07:58.528Z,63.40
2019-05-11T01:10:41.163Z,63.30
2019-05-11T01:12:57.680Z,63.30
2019-05-11T01:15:26.433Z,63.60
2019-05-11T01:17:55.252Z,63.40
2019-05-11T01:20:24.000Z,63.60
2019-05-11T01:22:52.767Z,64.00
2019-05-11T01:25:21.506Z,64.00
2019-05-11T01:27:50.253Z,64.00
2019-05-11T01:30:19.210Z,64.10
2019-05-11T01:32:47.954Z,64.10
2019-05-11T01:35:16.983Z,63.90
2019-05-11T01:37:45.746Z,63.90
2019-05-11T01:40:14.966Z,64.00
2019-05-11T01:42:43.691Z,64.00
2019-05-11T01:45:12.622Z,63.90
2019-05-11T01:47:41.387Z,63.80
2019-05-11T01:50:10.332Z,63.60
2019-05-11T01:52:38.993Z,63.90
2019-05-11T01:55:07.810Z,64.00
2019-05-11T01:57:36.621Z,63.90
2019-05-11T02:00:08.802Z,63.90
2019-05-11T02:02:37.556Z,63.90
2019-05-11T02:05:25.177Z,63.90
2019-05-11T02:07:53.932Z,64.20
2019-05-11T02:10:22.677Z,64.50
2019-05-11T02:12:51.742Z,64.20
2019-05-11T02:15:20.558Z,64.20
2019-05-11T02:17:49.305Z,64.60
2019-05-11T02:20:18.327Z,64.30
2019-05-11T02:22:47.074Z,64.40
2019-05-11T02:25:15.915Z,64.30
2019-05-11T02:27:44.647Z,64.40
2019-05-11T02:30:13.859Z,64.80
2019-05-11T02:32:42.625Z,64.60
2019-05-11T02:35:11.643Z,64.60
2019-05-11T02:37:40.395Z,64.90
2019-05-11T02:40:10.716Z,65.00
2019-05-11T02:42:39.463Z,65.00
2019-05-11T02:45:08.674Z,65.30
2019-05-11T02:47:37.424Z,65.50
2019-05-11T02:50:06.472Z,65.30
2019-05-11T02:52:35.580Z,65.30
2019-05-11T02:55:05.228Z,65.30
2019-05-11T02:57:33.200Z,65.30
2019-05-11T03:00:02.009Z,66.10
2019-05-11T03:02:30.790Z,65.40
2019-05-11T03:04:59.478Z,65.50
2019-05-11T03:07:28.226Z,65.50
2019-05-11T03:09:56.909Z,65.60
2019-05-11T03:12:25.657Z,65.50
2019-05-11T03:14:54.479Z,65.70
2019-05-11T03:17:24.869Z,65.70
2019-05-11T03:19:53.545Z,65.70
2019-05-11T03:22:22.293Z,65.40
2019-05-11T03:24:51.034Z,65.50
2019-05-11T03:27:19.800Z,65.10
2019-05-11T03:29:48.485Z,65.00
2019-05-11T03:32:17.236Z,65.00
2019-05-11T03:34:45.992Z,65.20
2019-05-11T03:37:14.736Z,65.20
2019-05-11T03:39:43.482Z,64.80
2019-05-11T03:42:14.999Z,64.70
2019-05-11T03:44:42.617Z,64.70
2019-05-11T03:47:11.370Z,64.40
2019-05-11T03:49:40.119Z,64.40
2019-05-11T03:52:08.872Z,64.30
2019-05-11T03:54:37.548Z,64.20
2019-05-11T03:57:06.432Z,64.50
2019-05-11T03:59:35.133Z,64.30
2019-05-11T04:02:03.952Z,64.40
2019-05-11T04:04:32.703Z,64.90
2019-05-11T04:07:01.469Z,65.00
2019-05-11T04:09:30.164Z,65.00
2019-05-11T04:11:58.935Z,65.20
2019-05-11T04:14:27.753Z,65.10
2019-05-11T04:16:56.520Z,65.40
2019-05-11T04:19:25.336Z,65.40
2019-05-11T04:21:54.022Z,65.60
2019-05-11T04:24:22.760Z,65.20
2019-05-11T04:26:52.620Z,65.00
2019-05-11T04:29:21.376Z,64.90
2019-05-11T04:31:50.065Z,64.90
2019-05-11T04:34:18.882Z,64.70
2019-05-11T04:36:47.694Z,64.40
2019-05-11T04:39:16.524Z,64.40
2019-05-11T04:41:45.221Z,64.40
2019-05-11T04:44:14.040Z,64.40
2019-05-11T04:46:42.788Z,64.20
2019-05-11T04:49:11.609Z,63.80
2019-05-11T04:51:40.387Z,63.60
2019-05-11T04:54:09.134Z,63.30
2019-05-11T04:56:37.965Z,63.00
2019-05-11T04:59:06.713Z,62.40
2019-05-11T05:01:35.459Z,62.50
2019-05-11T05:04:13.686Z,62.50
2019-05-11T05:06:34.625Z,62.60
2019-05-11T05:09:05.091Z,62.50
2019-05-11T05:11:36.867Z,62.20
2019-05-11T05:14:08.124Z,61.60
2019-05-11T05:16:34.698Z,61.40
2019-05-11T05:19:04.604Z,61.00
2019-05-11T05:21:34.830Z,61.00
2019-05-11T05:24:05.354Z,60.70
2019-05-11T05:26:35.138Z,60.90
2019-05-11T05:29:03.992Z,60.50
2019-05-11T05:31:32.813Z,60.30
2019-05-11T05:34:02.781Z,59.90
2019-05-11T05:36:31.481Z,59.80
2019-05-11T05:39:00.477Z,59.40
2019-05-11T05:41:29.218Z,59.20
2019-05-11T05:43:58.396Z,59.10
2019-05-11T05:46:28.463Z,58.80
2019-05-11T05:48:57.231Z,58.50
2019-05-11T05:51:25.990Z,58.30
2019-05-11T05:53:54.789Z,58.40
2019-05-11T05:56:23.541Z,58.40
2019-05-11T05:58:52.435Z,58.40
2019-05-11T06:01:21.271Z,58.30
2019-05-11T06:03:50.035Z,58.40
2019-05-11T06:06:20.583Z,58.40
2019-05-11T06:08:50.153Z,58.10
2019-05-11T06:11:18.110Z,57.70
2019-05-11T06:13:46.850Z,57.70
2019-05-11T06:16:15.532Z,57.60
2019-05-11T06:18:44.283Z,58.40
2019-05-11T06:21:13.019Z,58.00
2019-05-11T06:23:43.020Z,57.80
2019-05-11T06:26:11.780Z,58.30
2019-05-11T06:28:42.329Z,57.00
2019-05-11T06:31:12.649Z,57.10
2019-05-11T06:33:42.614Z,57.20
2019-05-11T06:36:11.356Z,57.30
2019-05-11T06:38:40.110Z,56.70
2019-05-11T06:41:08.861Z,56.60
2019-05-11T06:43:37.714Z,56.20
2019-05-11T06:46:07.498Z,55.80
2019-05-11T06:48:36.342Z,55.40
2019-05-11T06:51:05.242Z,55.30
2019-05-11T06:53:34.176Z,55.00
2019-05-11T06:56:03.027Z,54.60
2019-05-11T06:58:31.787Z,54.20
2019-05-11T07:01:00.648Z,53.80
2019-05-11T07:03:29.495Z,53.60
2019-05-11T07:05:58.242Z,53.10
2019-05-11T07:08:27.080Z,53.00
2019-05-11T07:10:55.837Z,52.80
2019-05-11T07:13:25.595Z,52.40
2019-05-11T07:15:54.378Z,52.00
2019-05-11T07:18:23.183Z,51.20
2019-05-11T07:20:52.065Z,50.70
2019-05-11T07:23:21.482Z,50.40
2019-05-11T07:25:49.500Z,50.30
2019-05-11T07:28:18.907Z,49.60
2019-05-11T07:30:47.697Z,49.60
2019-05-11T07:33:18.274Z,49.40
2019-05-11T07:35:47.840Z,48.50
2019-05-11T07:38:18.392Z,47.50
2019-05-11T07:40:47.729Z,46.80
2019-05-11T07:43:18.801Z,46.10
2019-05-11T07:45:48.099Z,46.00
2019-05-11T07:48:18.635Z,46.10
2019-05-11T07:50:47.972Z,45.70
2019-05-11T07:53:18.622Z,45.10
2019-05-11T07:55:48.533Z,44.10
2019-05-11T07:58:20.308Z,43.40
2019-05-11T08:00:48.910Z,43.10
2019-05-11T08:03:18.176Z,43.00
2019-05-11T08:05:47.864Z,43.40
2019-05-11T08:08:18.108Z,42.80
2019-05-11T08:10:48.293Z,42.40
2019-05-11T08:13:17.905Z,42.30
2019-05-11T08:15:46.013Z,41.70
2019-05-11T08:18:14.777Z,40.40
2019-05-11T08:20:43.599Z,40.60
2019-05-11T08:23:12.422Z,39.80
2019-05-11T08:25:41.238Z,38.50
2019-05-11T08:28:12.095Z,38.60
2019-05-11T08:30:41.631Z,38.00
2019-05-11T08:33:12.324Z,37.30
2019-05-11T08:35:41.140Z,36.10
2019-05-11T08:38:10.666Z,35.60
2019-05-11T08:40:39.493Z,35.90
2019-05-11T08:43:08.780Z,35.50
2019-05-11T08:45:39.109Z,34.90
2019-05-11T08:48:08.170Z,34.50
2019-05-11T08:50:38.214Z,35.70
2019-05-11T08:53:08.637Z,35.70
2019-05-11T08:55:38.474Z,35.70
2019-05-11T08:58:08.608Z,35.80
2019-05-11T09:00:38.967Z,36.10
2019-05-11T09:03:08.563Z,36.30
2019-05-11T09:05:38.465Z,35.80
2019-05-11T09:08:08.232Z,36.10
2019-05-11T09:10:39.699Z,35.90
2019-05-11T09:13:08.046Z,36.00
2019-05-11T09:15:40.477Z,35.80
2019-05-11T09:18:08.461Z,35.20
2019-05-11T09:20:37.936Z,35.40
2019-05-11T09:23:08.066Z,35.50
2019-05-11T09:25:38.405Z,35.60
2019-05-11T09:28:08.584Z,35.60
2019-05-11T09:30:37.806Z,35.50
2019-05-11T09:33:08.574Z,35.60
2019-05-11T09:35:47.585Z,35.60
2019-05-11T09:38:08.086Z,35.50
2019-05-11T09:40:38.601Z,34.90
2019-05-11T09:43:08.543Z,35.90
2019-05-11T09:45:45.781Z,34.50
2019-05-11T09:48:08.575Z,34.50
2019-05-11T09:50:38.757Z,34.70
2019-05-11T09:53:08.561Z,34.50
2019-05-11T09:55:38.870Z,34.30
2019-05-11T09:58:08.484Z,34.30
2019-05-11T10:00:38.829Z,33.90
2019-05-11T10:03:08.734Z,34.00
2019-05-11T10:05:38.981Z,34.00
2019-05-11T10:08:08.087Z,34.60
2019-05-11T10:10:38.393Z,35.10
2019-05-11T10:13:08.057Z,37.20
2019-05-11T10:15:38.558Z,36.60
2019-05-11T10:18:08.203Z,37.30
2019-05-11T10:20:39.195Z,36.70
2019-05-11T10:23:08.387Z,38.60
2019-05-11T10:25:39.126Z,39.20
2019-05-11T10:28:08.688Z,40.30
2019-05-11T10:30:38.546Z,40.80
2019-05-11T10:33:08.291Z,40.70
2019-05-11T10:35:37.981Z,39.70
2019-05-11T10:38:08.929Z,39.60
2019-05-11T10:40:38.764Z,40.00
2019-05-11T10:43:08.011Z,40.50
2019-05-11T10:45:37.883Z,39.10
2019-05-11T10:48:08.839Z,39.70
2019-05-11T10:50:38.057Z,40.00
2019-05-11T10:53:08.014Z,39.70
2019-05-11T10:55:38.638Z,40.50
2019-05-11T10:58:08.590Z,40.40
2019-05-11T11:00:38.876Z,40.90
2019-05-11T11:03:08.431Z,41.50
2019-05-11T11:05:38.506Z,41.30
2019-05-11T11:08:08.284Z,41.90
2019-05-11T11:10:37.876Z,41.70
2019-05-11T11:13:08.306Z,41.80
2019-05-11T11:15:38.068Z,42.20
2019-05-11T11:18:08.585Z,42.80
2019-05-11T11:20:38.384Z,42.90
2019-05-11T11:23:08.899Z,42.70
2019-05-11T11:25:37.783Z,42.90
2019-05-11T11:28:08.473Z,43.60
2019-05-11T11:30:39.584Z,43.30
2019-05-11T11:33:09.505Z,44.20
2019-05-11T11:35:38.535Z,44.50
2019-05-11T11:38:08.705Z,46.00
2019-05-11T11:40:38.702Z,45.50
2019-05-11T11:43:08.618Z,46.60
2019-05-11T11:45:38.117Z,47.00
2019-05-11T11:48:08.472Z,46.90
2019-05-11T11:50:37.769Z,46.50
2019-05-11T11:53:08.431Z,46.00
2019-05-11T11:55:39.051Z,46.90
2019-05-11T11:58:08.370Z,46.80
2019-05-11T12:00:38.868Z,46.90
2019-05-11T12:03:08.008Z,46.90
2019-05-11T12:05:38.621Z,47.20
2019-05-11T12:08:08.323Z,47.00
2019-05-11T12:10:37.968Z,47.70
2019-05-11T12:13:08.659Z,49.00
2019-05-11T12:15:38.739Z,49.80
2019-05-11T12:18:08.218Z,50.30
2019-05-11T12:20:38.958Z,50.00
2019-05-11T12:23:08.792Z,50.50
2019-05-11T12:25:40.469Z,50.10
2019-05-11T12:28:08.263Z,50.80
2019-05-11T12:30:37.667Z,52.50
2019-05-11T12:33:08.101Z,52.40
2019-05-11T12:35:37.806Z,53.10
2019-05-11T12:38:07.781Z,52.90
2019-05-11T12:40:38.699Z,52.50
2019-05-11T12:43:08.128Z,52.50
2019-05-11T12:45:37.619Z,53.90
2019-05-11T12:48:08.825Z,54.10
2019-05-11T12:50:37.919Z,53.70
2019-05-11T12:53:08.070Z,54.10
2019-05-11T12:55:37.925Z,54.50
2019-05-11T12:58:08.774Z,54.30
2019-05-11T13:00:39.133Z,53.90
2019-05-11T13:03:09.726Z,53.70
2019-05-11T13:05:38.549Z,53.00
2019-05-11T13:08:07.982Z,53.00
2019-05-11T13:10:37.652Z,52.50
2019-05-11T13:13:05.673Z,51.60
2019-05-11T13:15:34.727Z,51.00
2019-05-11T13:18:03.598Z,52.40
2019-05-11T13:20:32.516Z,51.40
2019-05-11T13:23:03.600Z,50.50
2019-05-11T13:25:35.011Z,50.20
2019-05-11T13:28:08.572Z,49.80
2019-05-11T13:30:38.571Z,49.60
2019-05-11T13:33:08.513Z,50.00
2019-05-11T13:35:39.160Z,50.20
2019-05-11T13:38:10.486Z,50.40
2019-05-11T13:40:40.551Z,50.10
2019-05-11T13:43:10.061Z,49.80
2019-05-11T13:45:38.683Z,49.90
2019-05-11T13:48:08.547Z,49.20
2019-05-11T13:50:38.708Z,48.50
2019-05-11T13:53:09.568Z,48.60
2019-05-11T13:55:38.954Z,48.70
2019-05-11T13:58:10.179Z,48.80
2019-05-11T14:00:38.964Z,48.70
2019-05-11T14:03:09.415Z,49.20
2019-05-11T14:05:38.249Z,49.70
2019-05-11T14:08:08.105Z,49.80
2019-05-11T14:10:38.368Z,50.10
2019-05-11T14:13:08.745Z,50.30
2019-05-11T14:15:37.827Z,50.20
2019-05-11T14:18:09.476Z,50.10
2019-05-11T14:20:37.904Z,50.20
2019-05-11T14:23:08.638Z,50.60
2019-05-11T14:25:40.495Z,50.50
2019-05-11T14:28:09.523Z,51.10
2019-05-11T14:30:38.828Z,50.90
2019-05-11T14:33:08.722Z,51.70
2019-05-11T14:35:38.307Z,52.60
2019-05-11T14:38:08.044Z,53.10
2019-05-11T14:40:35.365Z,54.20
2019-05-11T14:43:04.122Z,54.50
2019-05-11T14:45:33.250Z,55.00
2019-05-11T14:48:02.122Z,55.70
2019-05-11T14:50:30.833Z,56.00
2019-05-11T14:52:59.587Z,56.00
2019-05-11T14:55:28.821Z,56.20
2019-05-11T14:57:58.009Z,56.00
2019-05-11T15:00:28.928Z,55.90
2019-05-11T15:02:58.510Z,55.60
2019-05-11T15:05:28.335Z,55.50
2019-05-11T15:07:58.397Z,55.70
2019-05-11T15:10:27.804Z,55.70
2019-05-11T15:12:55.813Z,56.20
2019-05-11T15:15:24.655Z,57.10
2019-05-11T15:17:53.372Z,57.00
2019-05-11T15:20:22.268Z,56.90
2019-05-11T15:22:51.009Z,57.30
2019-05-11T15:25:20.099Z,57.20
2019-05-11T15:27:49.097Z,57.90
2019-05-11T15:30:19.481Z,58.30
2019-05-11T15:32:49.512Z,58.20
2019-05-11T15:35:18.983Z,58.10
2019-05-11T15:37:48.308Z,58.40
2019-05-11T15:40:23.424Z,58.20
2019-05-11T15:42:52.175Z,58.60
2019-05-11T15:45:21.018Z,58.40
2019-05-11T15:47:49.890Z,58.60
2019-05-11T15:50:20.388Z,59.60
2019-05-11T15:52:49.277Z,60.00
2019-05-11T15:55:19.039Z,61.20
2019-05-11T15:57:48.467Z,61.00
2019-05-11T16:00:20.003Z,60.60
2019-05-11T16:02:49.169Z,60.60
2019-05-11T16:05:18.614Z,60.60
2019-05-11T16:07:49.311Z,60.00
2019-05-11T16:10:19.179Z,60.10
2019-05-11T16:12:49.317Z,61.50
2019-05-11T16:15:19.206Z,61.90
2019-05-11T16:17:50.274Z,61.90
2019-05-11T16:20:21.178Z,62.40
2019-05-11T16:22:50.008Z,61.90
2019-05-11T16:25:19.662Z,61.90
2019-05-11T16:27:48.947Z,61.90
2019-05-11T16:30:21.642Z,62.60
2019-05-11T16:32:49.156Z,61.90
2019-05-11T16:35:20.267Z,62.10
2019-05-11T16:37:49.112Z,62.00
2019-05-11T16:40:20.776Z,62.00
2019-05-11T16:42:48.823Z,61.80
2019-05-11T16:45:19.653Z,62.00
2019-05-11T16:47:48.547Z,62.00
2019-05-11T16:50:18.174Z,62.00
2019-05-11T16:52:48.334Z,62.20
2019-05-11T16:55:18.256Z,62.00
2019-05-11T16:57:48.360Z,62.20
2019-05-11T17:00:17.793Z,63.30
2019-05-11T17:02:48.855Z,63.70
2019-05-11T17:05:26.078Z,64.20
2019-05-11T17:07:48.380Z,64.20
2019-05-11T17:10:18.043Z,64.90
2019-05-11T17:12:48.936Z,65.40
2019-05-11T17:15:18.800Z,65.60
2019-05-11T17:17:49.119Z,65.30
2019-05-11T17:20:19.164Z,65.00
2019-05-11T17:22:53.763Z,64.90
2019-05-11T17:25:21.386Z,64.80
2019-05-11T17:27:50.266Z,65.40
2019-05-11T17:30:19.991Z,65.30
2019-05-11T17:32:49.475Z,65.60
2019-05-11T17:35:18.479Z,65.50
2019-05-11T17:37:48.525Z,65.50
2019-05-11T17:40:20.610Z,66.00
2019-05-11T17:42:48.384Z,65.70
2019-05-11T17:45:20.519Z,66.00
2019-05-11T17:47:49.414Z,66.10
2019-05-11T17:50:19.101Z,65.60
2019-05-11T17:52:48.160Z,65.30
2019-05-11T17:55:18.435Z,65.00
2019-05-11T17:57:49.495Z,65.20
2019-05-11T18:00:20.029Z,65.20
2019-05-11T18:02:49.174Z,65.50
2019-05-11T18:05:18.183Z,65.60
2019-05-11T18:07:47.037Z,65.70
2019-05-11T18:10:18.032Z,66.20
2019-05-11T18:12:48.583Z,66.10
2019-05-11T18:15:18.560Z,66.10
2019-05-11T18:17:49.210Z,65.90
2019-05-11T18:20:21.437Z,66.00
2019-05-11T18:22:49.244Z,66.10
2019-05-11T18:25:18.759Z,65.60
2019-05-11T18:27:48.281Z,65.30
2019-05-11T18:30:17.466Z,65.40
2019-05-11T18:32:48.576Z,65.30
2019-05-11T18:35:19.116Z,65.00
2019-05-11T18:37:47.822Z,65.70
2019-05-11T18:40:18.902Z,64.90
2019-05-11T18:42:48.787Z,64.90
2019-05-11T18:45:18.944Z,65.00
2019-05-11T18:47:48.838Z,64.80
2019-05-11T18:50:29.444Z,64.80
2019-05-11T18:52:49.075Z,64.50
2019-05-11T18:55:19.006Z,64.40
2019-05-11T18:57:48.940Z,65.10
2019-05-11T19:00:18.553Z,65.50
2019-05-11T19:02:49.412Z,65.70
2019-05-11T19:05:19.047Z,66.30
2019-05-11T19:07:50.304Z,66.00
2019-05-11T19:10:19.168Z,66.50
2019-05-11T19:16:28.849Z,65.80
2019-05-11T19:18:58.605Z,65.20
2019-05-11T19:21:27.588Z,65.40
2019-05-11T19:23:58.123Z,65.90
2019-05-11T19:26:26.766Z,65.70
2019-05-11T19:28:55.444Z,65.30
2019-05-11T19:31:24.279Z,65.00
2019-05-11T19:33:52.962Z,64.80
2019-05-11T19:36:21.723Z,64.90
2019-05-11T19:38:50.550Z,64.90
2019-05-11T19:41:19.376Z,65.00
2019-05-11T19:43:48.647Z,65.00
2019-05-11T19:46:18.381Z,64.90
2019-05-11T19:48:47.486Z,65.10
2019-05-11T19:51:18.714Z,65.00
2019-05-11T19:53:48.425Z,65.20
2019-05-11T19:56:18.313Z,65.20
2019-05-11T19:58:48.491Z,65.20
2019-05-11T20:01:18.789Z,65.30
2019-05-11T20:03:47.564Z,65.20
2019-05-11T20:06:16.303Z,65.40
2019-05-11T20:08:45.103Z,65.40
2019-05-11T20:11:13.848Z,65.70
2019-05-11T20:13:42.607Z,65.70
2019-05-11T20:16:11.362Z,66.00
2019-05-11T20:18:40.116Z,66.50
2019-05-11T20:21:18.796Z,66.80
2019-05-11T20:23:39.242Z,67.40
2019-05-11T20:26:08.899Z,67.30
2019-05-11T20:28:37.950Z,67.30
2019-05-11T20:31:08.018Z,67.30
2019-05-11T20:33:38.534Z,67.30
2019-05-11T20:36:08.619Z,67.20
2019-05-11T20:38:38.339Z,67.50
2019-05-11T20:41:08.340Z,67.40
2019-05-11T20:43:36.134Z,68.30
2019-05-11T20:46:04.833Z,68.40
2019-05-11T20:48:33.671Z,67.30
2019-05-11T20:51:02.501Z,68.30
2019-05-11T20:53:31.329Z,68.50
2019-05-11T20:56:00.163Z,69.00
2019-05-11T20:58:30.559Z,69.40
2019-05-11T21:00:59.364Z,69.80
2019-05-11T21:03:28.497Z,70.20
2019-05-11T21:05:58.608Z,70.40
2019-05-11T21:08:28.351Z,70.50
2019-05-11T21:10:58.143Z,70.80
2019-05-11T21:13:28.235Z,71.00
2019-05-11T21:15:59.123Z,70.90
2019-05-11T21:18:28.744Z,71.10
2019-05-11T21:20:59.770Z,72.00
2019-05-11T21:23:29.105Z,71.60
2019-05-11T21:25:57.958Z,71.60
2019-05-11T21:28:30.391Z,72.10
2019-05-11T21:30:58.529Z,72.20
2019-05-11T21:33:28.356Z,72.30
2019-05-11T21:36:00.481Z,72.30
2019-05-11T21:38:31.565Z,72.20
2019-05-11T21:40:58.015Z,72.40
2019-05-11T21:43:26.787Z,72.30
2019-05-11T21:45:55.538Z,72.20
2019-05-11T21:48:24.299Z,72.10
2019-05-11T21:50:53.117Z,72.30
2019-05-11T21:53:21.820Z,72.30
2019-05-11T21:55:50.671Z,72.80
2019-05-11T21:58:19.431Z,72.80
2019-05-11T22:00:50.209Z,73.20
2019-05-11T22:03:19.090Z,73.10
2019-05-11T22:05:48.523Z,73.10
2019-05-11T22:08:17.926Z,73.10
2019-05-11T22:10:46.824Z,73.10
2019-05-11T22:13:18.090Z,73.10
2019-05-11T22:15:46.002Z,72.90
2019-05-11T22:18:29.755Z,73.20
2019-05-11T22:20:45.094Z,73.10
2019-05-11T22:23:13.839Z,73.00
2019-05-11T22:25:42.622Z,73.50
2019-05-11T22:28:13.239Z,74.00
2019-05-11T22:30:42.009Z,73.90
2019-05-11T22:33:10.857Z,74.10
2019-05-11T22:35:39.690Z,74.20
2019-05-11T22:38:08.856Z,74.20
2019-05-11T22:40:38.306Z,74.10
2019-05-11T22:43:09.048Z,74.20
2019-05-11T22:45:38.333Z,74.50
2019-05-11T22:48:07.881Z,74.40
2019-05-11T22:50:38.195Z,74.40
2019-05-11T22:53:08.679Z,74.90
2019-05-11T22:55:38.209Z,75.00
2019-05-11T22:58:08.442Z,75.10
2019-05-11T23:00:44.764Z,75.40
2019-05-11T23:03:13.674Z,75.30
2019-05-11T23:05:42.750Z,75.40
2019-05-11T23:08:11.582Z,75.50
2019-05-11T23:10:40.364Z,75.60
2019-05-11T23:13:11.450Z,75.60
2019-05-11T23:15:40.473Z,75.60
2019-05-11T23:18:09.456Z,75.70
2019-05-11T23:20:38.835Z,75.90
2019-05-11T23:23:08.674Z,76.10
2019-05-11T23:25:37.763Z,76.70
2019-05-11T23:28:06.551Z,76.70
2019-05-11T23:30:35.357Z,77.00
2019-05-11T23:33:04.181Z,77.20
2019-05-11T23:35:32.968Z,76.90
2019-05-11T23:38:01.732Z,76.30
2019-05-11T23:40:30.491Z,76.10
2019-05-11T23:42:59.306Z,76.10
2019-05-11T23:45:28.274Z,76.10
2019-05-11T23:47:58.906Z,75.70
2019-05-11T23:50:28.348Z,75.70
2019-05-11T23:53:05.997Z,76.10
2019-05-11T23:55:29.012Z,75.70
2019-05-11T23:57:57.712Z,75.90
